• Join FlightAware (Why Join?)
  • Login
  • US Flag 
03:22PM EDT


 

Airport Tracker/Info


-or-


 

Live Flight TrackerFlight Track Log ✈ D-AIMA ✈ 18-Apr-2013 ✈ KIAH - EDDF / FRA

Flight Track Log - Related Links

Times and Time Zones

All times are in EDT time to prevent confusion due to time zone crossing. See the D-AIMA flight status page for this flight to view local times or setup timezone preferences in your user account.

Time Position Orientation Groundspeed Altitude Reporting Facility
EDT Latitude Longitude Course Direction KTS MPH feet Rate Location/Type
06:47PM 29.9775 -95.3515 332° Northwest 151 174 100  Level FlightAware ADS-B
06:47PM 29.9845 -95.3558 332° Northwest 155 178 400 1,380 Climbing FlightAware ADS-B
06:47PM 29.9903 -95.3598 329° Northwest 153 176 600 1,380 Climbing FlightAware ADS-B
06:47PM 29.9923 -95.3614 325° Northwest 154 177 700 1,680 Climbing FlightAware ADS-B
06:48PM 29.9942 -95.3634 318° Northwest 155 178 800 1,680 Climbing FlightAware ADS-B
06:48PM 29.9959 -95.3659 308° West 155 178 900 840 Climbing FlightAware ADS-B
06:48PM 29.9973 -95.3690 298° West 159 183 900 720 Level FlightAware ADS-B
06:48PM 29.9981 -95.3718 288° West 163 188 1,000 1,680 Climbing FlightAware ADS-B
06:48PM 29.9984 -95.3743 278° West 166 191 1,100 960 Climbing FlightAware ADS-B
06:48PM 29.9984 -95.3774 270° West 169 194 1,100 840 Level FlightAware ADS-B
06:48PM 29.9979 -95.3809 261° West 174 200 1,200 1,320 Climbing FlightAware ADS-B
06:48PM 29.9964 -95.3851 248° West 178 205 1,300 1,320 Climbing FlightAware ADS-B
06:48PM 29.9949 -95.3880 239° Southwest 181 208 1,400 1,680 Climbing FlightAware ADS-B
06:48PM 29.9929 -95.3905 227° Southwest 184 212 1,500 1,500 Climbing FlightAware ADS-B
06:48PM 29.9897 -95.3934 218° Southwest 187 215 1,600 720 Climbing FlightAware ADS-B
06:48PM 29.9870 -95.3949 206° Southwest 190 219 1,600 960 Level FlightAware ADS-B
06:48PM 29.9845 -95.3960 201° Southwest 193 222 1,700 840 Climbing FlightAware ADS-B
06:48PM 29.9814 -95.3967 191° South 197 227 1,700 840 Level FlightAware ADS-B
06:48PM 29.9785 -95.3969 183° South 201 231 1,800 960 Climbing FlightAware ADS-B
06:48PM 29.9753 -95.3966 175° South 204 235 1,800  Level FlightAware ADS-B
06:49PM 29.9701 -95.3949 164° South 209 241 1,800 600 Level FlightAware ADS-B
06:49PM 29.9669 -95.3930 153° Southeast 211 243 1,900 600 Climbing FlightAware ADS-B
06:49PM 29.9623 -95.3888 142° Southeast 214 246 1,900 660 Level FlightAware ADS-B
06:49PM 29.9604 -95.3863 131° Southeast 215 247 2,000 1,680 Climbing FlightAware ADS-B
06:49PM 29.9579 -95.3821 124° Southeast 216 249 2,100 1,140 Climbing FlightAware ADS-B
06:49PM 29.9491 -95.3650 121° Southeast 230 265 2,400 840 Climbing FlightAware ADS-B
06:49PM 29.9394 -95.3457 120° Southeast 253 291 2,600 900 Climbing FlightAware ADS-B
06:50PM 29.9266 -95.3202 120° Southeast 262 302 3,000 1,080 Climbing FlightAware ADS-B
06:50PM 29.9169 -95.3007 120° Southeast 262 302 3,300 900 Climbing FlightAware ADS-B
06:50PM 29.9077 -95.2819 119° Southeast 269 310 3,500 960 Climbing FlightAware ADS-B
06:50PM 29.9027 -95.2718 120° Southeast 272 313 3,700 1,080 Climbing FlightAware ADS-B
06:51PM 29.8940 -95.2537 119° Southeast 275 316 3,900 780 Climbing FlightAware ADS-B
06:51PM 29.8847 -95.2336 118° Southeast 281 323 4,100 540 Climbing FlightAware ADS-B
06:51PM 29.8747 -95.2116 118° Southeast 290 334 4,200 1,020 Climbing FlightAware ADS-B
06:51PM 29.8673 -95.1955 118° Southeast 288 331 4,600 2,400 Climbing FlightAware ADS-B
06:52PM 29.8614 -95.1815 116° Southeast 282 325 5,100 3,120 Climbing FlightAware ADS-B
06:52PM 29.8558 -95.1675 115° Southeast 276 318 5,700 3,480 Climbing FlightAware ADS-B
06:52PM 29.8523 -95.1585 114° Southeast 271 312 6,100 3,300 Climbing FlightAware ADS-B
06:52PM 29.8461 -95.1405 112° Southeast 265 305 6,800 2,220 Climbing FlightAware ADS-B
06:52PM 29.8416 -95.1258 109° East 275 316 7,000 1,080 Climbing FlightAware ADS-B
06:52PM 29.8399 -95.1196 108° East 281 323 7,100 1,500 Climbing FlightAware ADS-B
06:52PM 29.8389 -95.1151 104° East 284 327 7,200 1,980 Climbing FlightAware ADS-B
06:52PM 29.8382 -95.1102 99° East 286 329 7,300 960 Climbing FlightAware ADS-B
06:52PM 29.8379 -95.1058 94° East 288 331 7,300 1,500 Level FlightAware ADS-B
06:52PM 29.8379 -95.1045 90° East 288 331 7,400 1,980 Climbing FlightAware ADS-B
06:53PM 29.8380 -95.0967 89° East 291 335 7,500 1,500 Climbing FlightAware ADS-B
06:53PM 29.8383 -95.0921 86° East 291 335 7,600 2,220 Climbing FlightAware ADS-B
06:53PM 29.8394 -95.0833 82° East 299 344 7,800 1,500 Climbing FlightAware ADS-B
06:53PM 29.8401 -95.0795 78° East 301 346 7,800 840 Level FlightAware ADS-B
06:53PM 29.8414 -95.0725 78° East 304 350 7,900 1,800 Climbing FlightAware ADS-B
06:53PM 29.8438 -95.0590 78° East 306 352 8,200 1,980 Climbing FlightAware ADS-B
06:53PM 29.8463 -95.0447 79° East 309 356 8,500 1,560 Climbing FlightAware ADS-B
06:53PM 29.8481 -95.0345 78° East 311 358 8,600 1,320 Climbing FlightAware ADS-B
06:53PM 29.8489 -95.0298 79° East 312 359 8,700 1,980 Climbing FlightAware ADS-B
06:53PM 29.8526 -95.0096 78° East 315 362 9,100 1,860 Climbing FlightAware ADS-B
06:53PM 29.8537 -95.0036 78° East 315 362 9,200 2,220 Climbing FlightAware ADS-B
06:54PM 29.8575 -94.9838 78° East 317 365 9,700 2,280 Climbing FlightAware ADS-B
06:54PM 29.8677 -94.9341 77° East 313 360 10,800 2,100 Climbing FlightAware ADS-B
06:54PM 29.8678 -94.9332 83° East 313 360 10,800 1,980 Level FlightAware ADS-B
06:55PM 29.8778 -94.8853 76° East 317 365 11,800 1,980 Climbing FlightAware ADS-B
06:55PM 29.8790 -94.8792 77° East 316 364 11,900 1,200 Climbing FlightAware ADS-B
06:55PM 29.8826 -94.8606 77° East 326 375 12,100 1,260 Climbing FlightAware ADS-B
06:55PM 29.8833 -94.8563 79° East 328 377 12,200 1,680 Climbing FlightAware ADS-B
06:55PM 29.8842 -94.8485 82° East 331 381 12,300 1,320 Climbing FlightAware ADS-B
06:55PM 29.8871 -94.8072 85° East 343 395 12,800 1,500 Climbing FlightAware ADS-B
06:56PM 29.8884 -94.7847 86° East 346 398 13,200 1,860 Climbing FlightAware ADS-B
06:56PM 29.8908 -94.7477 86° East 355 409 13,800 1,920 Climbing FlightAware ADS-B
06:56PM 29.8924 -94.7263 85° East 356 410 14,200 2,100 Climbing FlightAware ADS-B
06:56PM 29.8950 -94.6893 85° East 358 412 14,900 2,160 Climbing FlightAware ADS-B
06:57PM 29.8965 -94.6681 85° East 361 415 15,300 1,500 Climbing FlightAware ADS-B
06:57PM 29.8996 -94.6271 85° East 378 435 15,700 1,080 Climbing FlightAware ADS-B
06:57PM 29.9015 -94.6025 85° East 388 447 15,900 780 Climbing FlightAware ADS-B
06:58PM 29.9041 -94.5650 85° East 404 465 16,100 1,320 Climbing FlightAware ADS-B
06:58PM 29.9064 -94.5281 86° East 406 467 16,700 1,980 Climbing FlightAware ADS-B
06:58PM 29.9082 -94.5002 86° East 410 472 17,100 2,040 Climbing FlightAware ADS-B
06:58PM 29.9109 -94.4592 86° East 412 474 17,800 1,920 Climbing FlightAware ADS-B
06:59PM 29.9126 -94.4328 86° East 416 479 18,100 1,800 Climbing FlightAware ADS-B
06:59PM 29.9127 -94.4306 87° East 416 479 18,200 2,220 Climbing FlightAware ADS-B
06:59PM 29.9128 -94.4147 90° East 415 478 18,400 1,500 Climbing FlightAware ADS-B
06:59PM 29.9127 -94.4119 92° East 415 478 18,400 1,620 Level FlightAware ADS-B
06:59PM 29.9114 -94.3902 94° East 415 478 18,700 1,860 Climbing FlightAware ADS-B
06:59PM 29.9050 -94.3294 97° East 417 480 19,600 1,920 Climbing FlightAware ADS-B
06:59PM 29.9043 -94.3233 98° East 417 480 19,700 1,200 Climbing FlightAware ADS-B
07:00PM 29.8974 -94.2616 97° East 430 495 20,200 960 Climbing FlightAware ADS-B
07:00PM 29.8967 -94.2558 98° East 433 498 20,200 720 Level FlightAware ADS-B
07:00PM 29.8894 -94.1908 97° East 448 516 20,600 780 Climbing FlightAware ADS-B
07:00PM 29.8886 -94.1843 98° East 451 519 20,600 720 Level FlightAware ADS-B
07:01PM 29.8798 -94.1111 98° East 470 541 21,000 660 Climbing FlightAware ADS-B
07:01PM 29.8754 -94.0741 98° East 480 552 21,100 360 Climbing FlightAware ADS-B
07:01PM 29.8729 -94.0291 94° East 495 570 21,200 600 Climbing FlightAware ADS-B
07:01PM 29.8728 -94.0232 91° East 496 571 21,300 780 Climbing FlightAware ADS-B
07:02PM 29.8738 -93.9474 89° East 511 588 21,600 1,080 Climbing FlightAware ADS-B
07:02PM 29.8751 -93.8656 89° East 516 594 22,400 1,320 Climbing FlightAware ADS-B
07:03PM 29.8767 -93.7808 89° East 524 603 23,000 1,200 Climbing FlightAware ADS-B
07:03PM 29.8775 -93.7415 89° East 527 606 23,300 1,020 Climbing FlightAware ADS-B
07:03PM 29.8813 -93.7029 84° East 536 617 23,500 1,140 Climbing FlightAware ADS-B
07:04PM 29.8930 -93.6534 75° East 539 620 23,900 1,260 Climbing FlightAware ADS-B
07:04PM 29.9169 -93.5710 71° East 546 628 24,500 1,080 Climbing FlightAware ADS-B
07:05PM 29.9409 -93.4861 72° East 554 638 25,000 720 Climbing FlightAware ADS-B
07:05PM 29.9652 -93.3990 72° East 565 650 25,300 1,140 Climbing FlightAware ADS-B
07:06PM 29.9862 -93.3226 72° East 566 651 26,100 1,260 Climbing FlightAware ADS-B
07:07PM 30.0197 -93.1686 76° East 568 654 27,000 840 Climbing FlightAware ADS-B
07:07PM 30.0423 -93.0610 76° East 583 671 27,400 780 Climbing FlightAware ADS-B
07:08PM 30.0715 -92.9221 76° East 591 680 28,100 900 Climbing FlightAware ADS-B
07:09PM 30.1020 -92.7760 76° East 596 686 28,800 780 Climbing FlightAware ADS-B
07:09PM 30.1253 -92.6575 76° East 600 690 29,300 960 Climbing Houston Center
07:10PM 30.1625 -92.4728 77° East 595 685 30,600 1,200 Climbing Houston Center
07:11PM 30.1883 -92.2844 81° East 597 687 31,800 1,140 Climbing Houston Center
07:13PM 30.2128 -92.1006 81° East 589 678 33,000 1,260 Climbing Houston Center
07:14PM 30.2392 -91.8786 82° East 582 670 34,500 540 Climbing Houston Center
07:20PM 30.7070 -91.0160 82° East 550 633 37,000 360 Climbing FlightAware
07:20PM 30.7810 -90.9180 49° Northeast 550 633 37,000  Level FlightAware
07:21PM 30.8480 -90.8310 48° Northeast 551 634 37,000  Level FlightAware
07:22PM 30.9260 -90.7310 48° Northeast 553 636 37,000  Level FlightAware
07:22PM 30.9800 -90.6610 48° Northeast 553 636 37,000  Level FlightAware
07:23PM 31.0530 -90.5670 48° Northeast 553 636 37,000  Level FlightAware
07:24PM 31.1290 -90.4670 48° Northeast 552 635 37,000  Level FlightAware
07:24PM 31.1960 -90.3810 48° Northeast 552 635 37,000  Level FlightAware
07:25PM 31.2640 -90.2920 48° Northeast 552 635 37,000  Level FlightAware
07:26PM 31.3470 -90.1820 49° Northeast 551 634 37,000  Level FlightAware
07:27PM 31.4190 -90.0890 48° Northeast 551 634 37,000  Level FlightAware
07:27PM 31.5150 -89.9630 48° Northeast 551 634 37,000  Level FlightAware
07:28PM 31.5850 -89.8690 49° Northeast 551 634 37,000  Level FlightAware
07:29PM 31.6540 -89.7770 49° Northeast 552 635 37,000  Level FlightAware
07:30PM 31.7330 -89.6720 48° Northeast 553 636 37,000  Level FlightAware
07:30PM 31.8010 -89.5830 48° Northeast 554 638 37,000  Level FlightAware
07:31PM 31.8940 -89.4580 49° Northeast 552 635 37,000  Level FlightAware
07:32PM 31.9610 -89.3710 48° Northeast 552 635 37,000  Level FlightAware
07:33PM 32.0190 -89.2950 48° Northeast 552 635 37,000  Level FlightAware
07:33PM 32.0770 -89.2180 48° Northeast 552 635 37,000  Level FlightAware
07:34PM 32.1350 -89.1420 48° Northeast 552 635 37,000  Level FlightAware
07:35PM 32.1930 -89.0660 48° Northeast 552 635 37,000  Level FlightAware
07:35PM 32.2660 -88.9710 48° Northeast 552 635 37,000  Level FlightAware
07:36PM 32.3240 -88.8940 48° Northeast 552 635 37,000  Level FlightAware
07:37PM 32.3820 -88.8180 48° Northeast 552 635 37,000  Level FlightAware
07:37PM 32.4400 -88.7410 48° Northeast 552 635 37,000  Level FlightAware
07:38PM 32.4980 -88.6650 48° Northeast 552 635 37,000  Level FlightAware
07:39PM 32.5710 -88.5690 48° Northeast 552 635 37,000  Level FlightAware
07:40PM 32.6290 -88.4930 48° Northeast 552 635 37,000  Level FlightAware
07:40PM 32.6870 -88.4160 48° Northeast 552 635 37,000  Level FlightAware
07:41PM 32.7590 -88.3200 48° Northeast 552 635 37,000  Level FlightAware
07:42PM 32.9225 -88.0131 48° Northeast 541 623 37,000  Level Atlanta Center
07:43PM 33.0342 -87.8472 51° Northeast 543 625 37,000  Level Atlanta Center
07:44PM 33.1281 -87.7075 51° Northeast 543 625 37,000  Level Atlanta Center
07:45PM 33.2197 -87.5697 51° Northeast 538 619 37,000  Level Atlanta Center
07:46PM 33.3111 -87.4342 51° Northeast 532 612 37,000  Level Atlanta Center
07:47PM 33.4047 -87.2936 51° Northeast 526 605 37,000  Level Atlanta Center
07:48PM 33.4961 -87.1550 52° Northeast 526 605 37,000  Level Atlanta Center
07:49PM 33.5892 -87.0139 52° Northeast 526 605 37,000  Level Atlanta Center
07:50PM 33.6844 -86.8772 50° Northeast 526 605 37,000  Level Atlanta Center
07:51PM 33.7811 -86.7481 48° Northeast 526 605 37,000  Level Atlanta Center
07:56PM 34.3450 -86.0194 48° Northeast 544 626 37,000  Level FlightAware ADS-B
07:57PM 34.4065 -85.9381 47° Northeast 542 624 37,000  Level FlightAware ADS-B
07:58PM 34.4627 -85.8635 48° Northeast 542 624 37,000  Level FlightAware ADS-B
07:58PM 34.5138 -85.7956 48° Northeast 543 625 37,000  Level FlightAware ADS-B
07:59PM 34.5653 -85.7272 48° Northeast 546 628 37,000  Level FlightAware ADS-B
07:59PM 34.6173 -85.6578 48° Northeast 544 626 37,000  Level FlightAware ADS-B
08:00PM 34.6695 -85.5879 48° Northeast 544 626 37,000  Level FlightAware ADS-B
08:00PM 34.7312 -85.5054 48° Northeast 542 624 37,000  Level FlightAware ADS-B
08:01PM 34.7925 -85.4232 48° Northeast 542 624 37,000  Level FlightAware ADS-B
08:01PM 34.8539 -85.3405 48° Northeast 541 623 37,000  Level FlightAware ADS-B
08:02PM 34.9143 -85.2591 48° Northeast 538 619 37,000  Level FlightAware ADS-B
08:03PM 34.9650 -85.1906 48° Northeast 537 618 37,000  Level FlightAware ADS-B
08:03PM 35.0280 -85.1050 48° Northeast 536 617 37,000  Level FlightAware
08:04PM 35.0759 -85.0401 48° Northeast 536 617 37,000  Level FlightAware ADS-B
08:04PM 35.1267 -84.9709 48° Northeast 535 616 37,000  Level FlightAware ADS-B
08:05PM 35.1771 -84.9024 48° Northeast 538 619 37,000  Level FlightAware ADS-B
08:05PM 35.2269 -84.8343 48° Northeast 539 620 37,000  Level FlightAware ADS-B
08:06PM 35.2773 -84.7654 48° Northeast 540 621 37,000  Level FlightAware ADS-B
08:06PM 35.3277 -84.6962 48° Northeast 541 623 37,000  Level FlightAware ADS-B
08:07PM 35.3855 -84.6168 48° Northeast 539 620 37,000  Level FlightAware ADS-B
08:07PM 35.4358 -84.5475 48° Northeast 536 617 37,000  Level FlightAware ADS-B
08:08PM 35.4854 -84.4790 48° Northeast 534 615 37,000  Level FlightAware ADS-B
08:08PM 35.5359 -84.4092 48° Northeast 533 613 37,000  Level FlightAware ADS-B
08:09PM 35.5860 -84.3398 48° Northeast 533 613 37,000  Level FlightAware ADS-B
08:09PM 35.6358 -84.2706 48° Northeast 534 615 37,000  Level FlightAware ADS-B
08:10PM 35.6864 -84.2002 48° Northeast 536 617 37,000  Level FlightAware ADS-B
08:10PM 35.7358 -84.1314 48° Northeast 536 617 37,000  Level FlightAware ADS-B
08:11PM 35.7858 -84.0614 49° Northeast 534 615 37,000  Level FlightAware ADS-B
08:11PM 35.8374 -83.9890 49° Northeast 533 613 37,000  Level FlightAware ADS-B
08:12PM 35.8640 -83.9530 48° Northeast 530 610 37,000  Level FlightAware ADS-B
08:12PM 35.9149 -83.8939 43° Northeast 525 604 37,000  Level FlightAware ADS-B
08:13PM 35.9811 -83.8309 38° Northeast 522 601 37,000  Level FlightAware ADS-B
08:13PM 36.0423 -83.7800 34° Northeast 520 598 37,000  Level FlightAware ADS-B
08:14PM 36.1107 -83.7222 34° Northeast 521 600 37,000  Level FlightAware ADS-B
08:14PM 36.1770 -83.6663 34° Northeast 520 598 37,000  Level FlightAware ADS-B
08:15PM 36.2381 -83.6147 34° Northeast 521 600 37,000  Level FlightAware ADS-B
08:15PM 36.2999 -83.5625 34° Northeast 522 601 37,000  Level FlightAware ADS-B
08:16PM 36.3606 -83.5111 34° Northeast 522 601 37,000  Level FlightAware ADS-B
08:16PM 36.4239 -83.4574 34° Northeast 522 601 37,000  Level FlightAware ADS-B
08:17PM 36.4857 -83.4050 34° Northeast 521 600 37,000  Level FlightAware ADS-B
08:17PM 36.5468 -83.3529 34° Northeast 520 598 37,000  Level FlightAware ADS-B
08:18PM 36.6112 -83.2979 34° Northeast 518 596 37,000  Level FlightAware ADS-B
08:19PM 36.6722 -83.2458 34° Northeast 520 598 37,000  Level FlightAware ADS-B
08:19PM 36.7348 -83.1921 35° Northeast 519 597 37,000  Level FlightAware ADS-B
08:20PM 36.7951 -83.1404 34° Northeast 518 596 37,000  Level FlightAware ADS-B
08:20PM 36.8787 -83.0685 35° Northeast 520 598 37,000  Level FlightAware ADS-B
08:21PM 36.9465 -83.0099 35° Northeast 520 598 37,000  Level FlightAware ADS-B
08:21PM 37.0075 -82.9622 35° Northeast 526 605 37,000  Level Indianapolis Center
08:27PM 37.6990 -82.3520 35° Northeast 514 592 37,000  Level FlightAware
08:28PM 37.7800 -82.2810 35° Northeast 515 593 37,000  Level FlightAware
08:29PM 37.8690 -82.2010 35° Northeast 513 590 37,000  Level FlightAware
08:29PM 37.9470 -82.1320 35° Northeast 513 590 37,000  Level FlightAware
08:30PM 38.0330 -82.0540 36° Northeast 512 589 37,000  Level FlightAware
08:31PM 38.1100 -81.9860 35° Northeast 511 588 37,000  Level FlightAware
08:32PM 38.2000 -81.9050 35° Northeast 509 586 37,000  Level FlightAware
08:32PM 38.2720 -81.8400 35° Northeast 509 586 37,000  Level FlightAware
08:33PM 38.3530 -81.7720 33° Northeast 504 580 37,000  Level FlightAware
08:34PM 38.4470 -81.7160 25° Northeast 500 575 37,000  Level FlightAware
08:34PM 38.5320 -81.6680 24° Northeast 499 574 37,000  Level FlightAware
08:35PM 38.6160 -81.6210 24° Northeast 498 573 37,000  Level FlightAware
08:36PM 38.7130 -81.5660 24° Northeast 499 574 37,000  Level FlightAware
08:36PM 38.7940 -81.5210 23° Northeast 500 575 37,000  Level FlightAware
08:37PM 38.8900 -81.4660 24° Northeast 504 580 37,000  Level FlightAware
08:38PM 38.9770 -81.4170 24° Northeast 504 580 37,000  Level FlightAware
08:39PM 39.0640 -81.3680 24° Northeast 505 581 37,000  Level FlightAware
08:39PM 39.1580 -81.3140 24° Northeast 505 581 37,000  Level FlightAware
08:40PM 39.2430 -81.2650 24° Northeast 505 581 37,000  Level FlightAware
08:41PM 39.3430 -81.2080 24° Northeast 504 580 37,000  Level FlightAware
08:41PM 39.4230 -81.1520 28° Northeast 513 590 37,000  Level FlightAware
08:42PM 39.4970 -81.0720 40° Northeast 513 590 37,000  Level FlightAware
08:43PM 39.5780 -80.9880 39° Northeast 511 588 37,000  Level FlightAware
08:44PM 39.6780 -80.8830 39° Northeast 513 590 37,000  Level FlightAware
08:44PM 39.7530 -80.8040 39° Northeast 515 593 37,000  Level FlightAware
08:45PM 39.8380 -80.7140 39° Northeast 512 589 37,000  Level FlightAware
08:46PM 39.9200 -80.6280 39° Northeast 508 585 37,000  Level FlightAware
08:47PM 39.9860 -80.5570 39° Northeast 508 585 37,000  Level FlightAware
08:47PM 40.0720 -80.4650 39° Northeast 508 585 37,000  Level FlightAware
08:48PM 40.1460 -80.3870 39° Northeast 515 593 37,000  Level FlightAware
08:49PM 40.2300 -80.2960 40° Northeast 520 598 37,000  Level FlightAware
08:49PM 40.3020 -80.2190 39° Northeast 520 598 37,000  Level FlightAware
08:50PM 40.3800 -80.1350 39° Northeast 521 600 37,000  Level FlightAware
08:51PM 40.4620 -80.0460 40° Northeast 521 600 37,000  Level FlightAware
08:51PM 40.5360 -79.9650 40° Northeast 520 598 37,000  Level FlightAware
08:52PM 40.6210 -79.8730 39° Northeast 516 594 37,000  Level FlightAware
08:53PM 40.6820 -79.8060 40° Northeast 518 596 37,000  Level FlightAware
08:54PM 40.7660 -79.7140 40° Northeast 521 600 37,000  Level FlightAware
08:54PM 40.8510 -79.6210 40° Northeast 520 598 37,000  Level FlightAware
08:55PM 40.9160 -79.5490 40° Northeast 522 601 37,000  Level FlightAware
08:56PM 41.0010 -79.4550 40° Northeast 523 602 37,000  Level FlightAware
08:56PM 41.0740 -79.3740 40° Northeast 521 600 37,000  Level FlightAware
08:57PM 41.1410 -79.2990 40° Northeast 519 597 37,000  Level FlightAware
08:58PM 41.2160 -79.2160 40° Northeast 517 595 37,000  Level FlightAware
08:58PM 41.3050 -79.1160 40° Northeast 521 600 37,000  Level FlightAware
08:59PM 41.3780 -79.0340 40° Northeast 524 603 37,000  Level FlightAware
09:00PM 41.4450 -78.9590 40° Northeast 525 604 37,000  Level FlightAware
09:01PM 41.5360 -78.8560 40° Northeast 521 600 37,000  Level FlightAware
09:01PM 41.6070 -78.7740 41° Northeast 519 597 37,000  Level FlightAware
09:02PM 41.6900 -78.6800 40° Northeast 517 595 37,000  Level FlightAware
09:03PM 41.7620 -78.5980 40° Northeast 518 596 37,000  Level FlightAware
09:03PM 41.8450 -78.5030 40° Northeast 516 594 37,000  Level FlightAware
09:04PM 41.9140 -78.4240 40° Northeast 516 594 37,000  Level FlightAware
09:05PM 41.9900 -78.3360 41° Northeast 519 597 37,000  Level FlightAware
09:05PM 42.0710 -78.2420 41° Northeast 516 594 37,000  Level FlightAware
09:06PM 42.1440 -78.1580 40° Northeast 517 595 37,000  Level FlightAware
09:07PM 42.2240 -78.0640 41° Northeast 516 594 37,000  Level FlightAware
09:08PM 42.2970 -77.9790 41° Northeast 514 592 37,000  Level FlightAware
09:08PM 42.3670 -77.8960 41° Northeast 516 594 37,000  Level FlightAware
09:09PM 42.4490 -77.8000 41° Northeast 518 596 37,000  Level FlightAware
09:10PM 42.5180 -77.7180 41° Northeast 519 597 37,000  Level FlightAware
09:10PM 42.6030 -77.6180 41° Northeast 516 594 37,000  Level FlightAware
09:11PM 42.6750 -77.5320 41° Northeast 515 593 37,000  Level FlightAware
09:12PM 42.7450 -77.4490 41° Northeast 518 596 37,000  Level FlightAware
09:12PM 42.8270 -77.3510 41° Northeast 518 596 37,000  Level FlightAware
09:13PM 42.8910 -77.2740 41° Northeast 515 593 37,000  Level FlightAware
09:14PM 42.9780 -77.1700 41° Northeast 512 589 37,000  Level FlightAware
09:15PM 43.0480 -77.0850 42° Northeast 512 589 37,000  Level FlightAware
09:15PM 43.1200 -76.9970 42° Northeast 514 592 37,000  Level FlightAware
09:16PM 43.1980 -76.9020 42° Northeast 517 595 37,000  Level FlightAware
09:17PM 43.2790 -76.8030 42° Northeast 519 597 37,000  Level FlightAware
09:17PM 43.3530 -76.7130 41° Northeast 519 597 37,000  Level FlightAware
09:18PM 43.4230 -76.6260 42° Northeast 517 595 37,000  Level FlightAware
09:19PM 43.5030 -76.5280 42° Northeast 516 594 37,000  Level FlightAware
09:19PM 43.5700 -76.4450 42° Northeast 516 594 37,000  Level FlightAware
09:20PM 43.6440 -76.3530 42° Northeast 516 594 37,000  Level FlightAware
09:21PM 43.7180 -76.2610 42° Northeast 515 593 37,000  Level FlightAware
09:22PM 43.7960 -76.1630 42° Northeast 516 594 37,000  Level FlightAware
09:22PM 43.8710 -76.0690 42° Northeast 518 596 37,000  Level FlightAware
09:23PM 43.9450 -75.9750 42° Northeast 518 596 37,000  Level FlightAware
09:24PM 44.0180 -75.8830 42° Northeast 518 596 37,000  Level FlightAware
09:24PM 44.0920 -75.7900 42° Northeast 520 598 37,000  Level FlightAware
09:25PM 44.1660 -75.6950 43° Northeast 520 598 37,000  Level FlightAware
09:26PM 44.2480 -75.5900 43° Northeast 526 605 37,000  Level FlightAware
09:26PM 44.3190 -75.5000 42° Northeast 529 609 37,000  Level FlightAware
09:27PM 44.4000 -75.3950 43° Northeast 528 608 37,000  Level FlightAware
09:28PM 44.4690 -75.3050 43° Northeast 530 610 37,000  Level FlightAware
09:28PM 44.5320 -75.2230 43° Northeast 530 610 37,000  Level FlightAware
09:29PM 44.6320 -75.0940 43° Northeast 531 611 37,000  Level FlightAware
09:30PM 44.6960 -75.0100 43° Northeast 533 613 37,000  Level FlightAware
09:31PM 44.7820 -74.8970 43° Northeast 534 615 37,000  Level FlightAware
09:31PM 44.8480 -74.8100 43° Northeast 534 615 37,000  Level FlightAware
09:32PM 44.9250 -74.7070 43° Northeast 536 617 37,000  Level FlightAware
09:33PM 44.9970 -74.5960 47° Northeast 540 621 37,000  Level FlightAware
09:33PM 45.0690 -74.4870 47° Northeast 542 624 37,000  Level FlightAware
09:34PM 45.1430 -74.3720 48° Northeast 537 618 37,000  Level FlightAware
09:35PM 45.2110 -74.2670 47° Northeast 537 618 37,000  Level FlightAware
09:36PM 45.2870 -74.1490 48° Northeast 540 621 37,000  Level FlightAware
09:36PM 45.3540 -74.0450 47° Northeast 540 621 37,000  Level FlightAware
09:37PM 45.4190 -73.9440 47° Northeast 536 617 37,000  Level FlightAware
09:38PM 45.4970 -73.8220 48° Northeast 536 617 37,000  Level FlightAware
09:38PM 45.5630 -73.7170 48° Northeast 534 615 37,000  Level FlightAware
09:39PM 45.6340 -73.6050 48° Northeast 536 617 37,000  Level FlightAware
09:40PM 45.7040 -73.4940 48° Northeast 538 619 37,000  Level FlightAware
09:40PM 45.7680 -73.3910 48° Northeast 535 616 37,000  Level FlightAware
09:41PM 45.8450 -73.2690 48° Northeast 537 618 37,000  Level FlightAware
09:42PM 45.8990 -73.1820 48° Northeast 538 619 37,000  Level FlightAware
09:43PM 45.9770 -73.0560 48° Northeast 537 618 37,000  Level FlightAware
09:43PM 46.0510 -72.9350 49° Northeast 537 618 37,000  Level FlightAware
09:44PM 46.1170 -72.8280 48° Northeast 537 618 37,000  Level FlightAware
09:45PM 46.1880 -72.7120 48° Northeast 538 619 37,000  Level FlightAware
09:45PM 46.2600 -72.5940 49° Northeast 537 618 37,000  Level FlightAware
09:46PM 46.3330 -72.4750 48° Northeast 537 618 37,000  Level FlightAware
09:47PM 46.4000 -72.3630 49° Northeast 538 619 37,000  Level FlightAware
09:48PM 46.4720 -72.2440 49° Northeast 539 620 37,000  Level FlightAware
09:48PM 46.5370 -72.1350 49° Northeast 540 621 37,000  Level FlightAware
09:49PM 46.6020 -72.0270 49° Northeast 541 623 37,000  Level FlightAware
09:50PM 46.6760 -71.9010 49° Northeast 541 623 37,000  Level FlightAware
09:50PM 46.7400 -71.7940 49° Northeast 546 628 37,000  Level FlightAware
09:51PM 46.8060 -71.6820 49° Northeast 547 629 37,000  Level FlightAware
09:52PM 46.8790 -71.5570 49° Northeast 548 631 37,000 60 Level FlightAware
09:52PM 46.9430 -71.4480 49° Northeast 549 632 37,100 480 Climbing FlightAware
09:53PM 47.0120 -71.3290 50° Northeast 545 627 37,700 600 Climbing FlightAware
09:54PM 47.0840 -71.2050 50° Northeast 547 629 38,000 180 Climbing FlightAware
09:54PM 47.1480 -71.0940 50° Northeast 547 629 38,000  Level FlightAware
09:55PM 47.2220 -70.9660 50° Northeast 548 631 38,000  Level FlightAware
09:56PM 47.2870 -70.8510 50° Northeast 548 631 38,000  Level FlightAware
09:57PM 47.3590 -70.7240 50° Northeast 548 631 38,000  Level FlightAware
09:57PM 47.4240 -70.6090 50° Northeast 548 631 38,000  Level FlightAware
09:58PM 47.4890 -70.4950 50° Northeast 548 631 38,000  Level FlightAware
09:59PM 47.5620 -70.3640 50° Northeast 547 629 38,000  Level FlightAware
09:59PM 47.6260 -70.2500 50° Northeast 549 632 38,000  Level FlightAware
10:00PM 47.6980 -70.1200 51° Northeast 549 632 38,000  Level FlightAware
10:01PM 47.7630 -70.0040 50° Northeast 549 632 38,000  Level FlightAware
10:02PM 47.8480 -69.8500 51° Northeast 548 631 38,000  Level FlightAware
10:03PM 47.9240 -69.7120 51° Northeast 548 631 38,000  Level FlightAware
10:03PM 48.0050 -69.5610 51° Northeast 549 632 38,000  Level FlightAware
10:04PM 48.0700 -69.4430 50° Northeast 549 632 38,000  Level FlightAware
10:05PM 48.1400 -69.3010 54° Northeast 558 642 38,000  Level FlightAware
10:05PM 48.1400 -69.3010 54° Northeast 561 646 38,000  Level FlightAware
10:06PM 48.2510 -68.9750 63° Northeast 566 651 38,000  Level FlightAware
10:07PM 48.2900 -68.8550 64° Northeast 566 651 38,000  Level FlightAware
10:08PM 48.3590 -68.6370 64° Northeast 567 652 38,000  Level FlightAware
10:09PM 48.3980 -68.5160 64° Northeast 567 652 38,000  Level FlightAware
10:09PM 48.4370 -68.3950 64° Northeast 567 652 38,000  Level FlightAware
10:10PM 48.4760 -68.2740 64° Northeast 567 652 38,000  Level FlightAware
10:11PM 48.5250 -68.1230 64° Northeast 567 652 38,000  Level FlightAware
10:12PM 48.5640 -68.0020 64° Northeast 567 652 38,000  Level FlightAware
10:12PM 48.6030 -67.8810 64° Northeast 567 652 38,000  Level FlightAware
10:13PM 48.6420 -67.7600 64° Northeast 567 652 38,000  Level FlightAware
10:14PM 48.6810 -67.6380 64° Northeast 567 652 38,000  Level FlightAware
10:14PM 48.7200 -67.5170 64° Northeast 567 652 38,000  Level FlightAware
10:15PM 48.7690 -67.3650 64° Northeast 567 652 38,000  Level FlightAware
10:16PM 48.8080 -67.2430 64° Northeast 567 652 38,000  Level FlightAware
10:16PM 48.8480 -67.1210 63° Northeast 567 652 38,000  Level FlightAware
10:17PM 48.8870 -66.9990 64° Northeast 567 652 38,000  Level FlightAware
10:17PM 48.9667 -66.5500 64° Northeast 560 644 38,000  Level Montreal Center
10:18PM 49.0167 -66.3333 71° East 560 644 38,000  Level Montreal Center
10:19PM 49.0667 -66.2333 53° Northeast 570 656 38,000  Level Gander Center
10:19PM 49.1000 -66.1333 63° Northeast 560 644 38,000  Level Moncton Center
10:20PM 49.1500 -65.9000 72° East 560 644 38,000  Level Montreal Center
10:21PM 49.2167 -65.6667 66° East 560 644 38,000  Level Montreal Center
10:22PM 49.2500 -65.5833 58° Northeast 570 656 38,000  Level Gander Center
10:22PM 49.2667 -65.4667 78° East 560 644 38,000  Level Moncton Center
10:23PM 49.3333 -65.2667 63° Northeast 570 656 38,000  Level Moncton Center
10:24PM 49.3833 -65.0333 72° East 570 656 38,000  Level Moncton Center
10:25PM 49.4500 -64.8167 65° Northeast 570 656 38,000  Level Moncton Center
10:26PM 49.5167 -64.5833 66° East 570 656 38,000  Level Moncton Center
10:27PM 49.5500 -64.4333 71° East 570 656 38,000  Level Gander Center
10:27PM 49.5667 -64.3667 69° East 570 656 38,000  Level Moncton Center
10:28PM 49.6333 -64.1333 66° East 570 656 38,000  Level Moncton Center
10:29PM 49.6667 -64.0000 69° East 570 656 38,000  Level Gander Center
10:29PM 49.6833 -63.9000 76° East 570 656 38,000  Level Moncton Center
10:30PM 49.7167 -63.7667 69° East 580 667 38,000  Level Gander Center
10:31PM 49.8000 -63.5333 61° Northeast 580 667 38,000  Level Gander Center
10:31PM 49.8167 -63.4333 75° East 580 667 38,000 360 Level Moncton Center
10:32PM 49.8667 -63.2333 69° East 570 656 38,500 480 Climbing Moncton Center
10:33PM 49.9333 -62.9667 69° East 570 656 39,000 300 Climbing Moncton Center
10:34PM 49.9667 -62.8167 71° East 570 656 39,000  Level Gander Center
10:35PM 50.0333 -62.6167 63° Northeast 580 667 39,000  Level Gander Center
10:36PM 50.0833 -62.3500 74° East 560 644 39,000  Level Gander Center
10:37PM 50.1333 -62.1500 69° East 590 679 39,000  Level Gander Center
10:37PM 50.1500 -62.0500 75° East 580 667 39,000  Level Moncton Center
10:38PM 50.2000 -61.8000 73° East 570 656 39,000  Level Moncton Center
10:39PM 50.2667 -61.6000 62° Northeast 580 667 39,000  Level Moncton Center
10:40PM 50.3000 -61.4333 73° East 580 667 39,000  Level Gander Center
10:40PM 50.3167 -61.3333 75° East 580 667 39,000  Level Moncton Center
10:41PM 50.3500 -61.1833 71° East 580 667 39,000  Level Gander Center
10:41PM 50.3667 -61.1167 69° East 570 656 39,000  Level Moncton Center
10:42PM 50.4000 -60.9667 71° East 580 667 39,000  Level Gander Center
10:43PM 50.4500 -60.7333 71° East 580 667 39,000  Level Gander Center
10:44PM 50.5167 -60.4667 68° East 580 667 39,000  Level Gander Center
10:45PM 50.5667 -60.2333 71° East 580 667 39,000  Level Gander Center
10:46PM 50.6167 -59.9833 72° East 580 667 39,000  Level Gander Center
10:47PM 50.6667 -59.7500 71° East 580 667 39,000  Level Gander Center
10:48PM 50.7167 -59.5167 71° East 570 656 39,000  Level Gander Center
10:49PM 50.7833 -59.3000 64° Northeast 570 656 39,000  Level Gander Center
10:49PM 50.8167 -59.2000 62° Northeast 570 656 39,000  Level Moncton Center
10:50PM 50.8667 -58.9833 70° East 560 644 39,000  Level Moncton Center
10:51PM 50.9167 -58.8500 59° Northeast 570 656 39,000  Level Gander Center
10:52PM 50.9667 -58.6000 72° East 570 656 39,000  Level Gander Center
10:53PM 51.0333 -58.3500 67° East 580 667 39,000  Level Gander Center
10:53PM 51.0667 -58.3000 43° Northeast 580 667 39,000  Level Moncton Center
10:54PM 51.1167 -58.0500 72° East 570 656 39,000  Level Moncton Center
10:55PM 51.1500 -57.9000 70° East 580 667 39,000  Level Gander Center
10:56PM 51.2167 -57.6833 64° Northeast 570 656 39,000  Level Gander Center
10:57PM 51.2833 -57.4000 69° East 570 656 39,000  Level Gander Center
10:58PM 51.3333 -57.1833 70° East 560 644 39,000  Level Gander Center
10:59PM 51.4000 -56.9333 67° East 580 667 39,000  Level Gander Center
10:59PM 51.4167 -56.8833 62° Northeast 570 656 39,000  Level Moncton Center
11:00PM 51.4833 -56.6167 68° East 570 656 39,000  Level Moncton Center
11:01PM 51.5333 -56.4000 70° East 570 656 39,000  Level Moncton Center
11:02PM 51.5667 -56.2500 70° East 570 656 39,000  Level Gander Center
11:03PM 51.6167 -56.0000 72° East 570 656 39,000  Level Gander Center
11:03PM 51.6333 -55.9167 72° East 560 644 39,000  Level Moncton Center
11:04PM 51.6833 -55.7833 59° Northeast 560 644 39,000  Level Gander Center
11:05PM 51.7333 -55.5333 72° East 560 644 39,000  Level Gander Center
11:06PM 51.7667 -55.3000 77° East 550 633 39,000  Level Gander Center
11:07PM 51.8333 -55.0833 63° Northeast 560 644 39,000  Level Gander Center
11:08PM 51.8833 -54.8333 72° East 550 633 39,000  Level Gander Center
11:09PM 51.9333 -54.6000 71° East 560 644 39,000  Level Gander Center
11:10PM 51.9833 -54.3500 72° East 560 644 39,000  Level Gander Center
11:11PM 52.0500 -54.1167 65° Northeast 560 644 39,000  Level Gander Center
11:12PM 52.1000 -53.8667 72° East 550 633 39,000  Level Gander Center
11:13PM 52.1500 -53.6500 69° East 550 633 39,000  Level Gander Center
11:14PM 52.1833 -53.4167 77° East 550 633 39,000  Level Gander Center
11:15PM 52.2333 -53.1667 72° East 560 644 39,000  Level Gander Center
11:16PM 52.2833 -52.9333 71° East 550 633 39,000  Level Gander Center
11:17PM 52.3333 -52.7000 71° East 540 621 39,000  Level Gander Center
11:18PM 52.4000 -52.4667 65° Northeast 530 610 39,000  Level Gander Center
11:19PM 52.4500 -52.2333 71° East 530 610 39,000  Level Gander Center
11:20PM 52.5000 -52.0333 68° East 530 610 39,000  Level Gander Center
11:21PM 52.5500 -51.8000 71° East 530 610 39,000  Level Gander Center
11:22PM 52.6167 -51.5667 65° Northeast 520 598 39,000  Level Gander Center
11:23PM 52.6333 -51.4000 81° East 520 598 39,000  Level Gander Center
11:24PM 52.6833 -51.1667 70° East 530 610 39,000  Level Gander Center
11:25PM 52.7500 -50.9333 65° Northeast 530 610 39,000  Level Gander Center
11:26PM 52.8000 -50.7000 70° East 530 610 39,000  Level Gander Center
11:27PM 52.8333 -50.4667 77° East 520 598 39,000  Level Gander Center
11:28PM 52.8833 -50.2500 69° East 530 610 39,000  Level Gander Center
11:29PM 52.9667 -50.0000 61° Northeast 530 610 39,000  Level Gander Center
11:30PM 53.0000 -49.7833 76° East 540 621 39,000  Level Gander Center
11:32PM 53.0514 -49.4259 76° East  Level FlightAware Approximate
11:39PM 53.2726 -47.7834 77° East  Level FlightAware Approximate
11:40PM 53.3023 -47.5474 78° East  Level FlightAware Approximate
11:41PM 53.3316 -47.3111 78° East  Level FlightAware Approximate
11:42PM 53.3604 -47.0745 78° East  Level FlightAware Approximate
11:43PM 53.3887 -46.8375 79° East  Level FlightAware Approximate
11:44PM 53.4166 -46.6002 79° East  Level FlightAware Approximate
11:45PM 53.4440 -46.3627 79° East  Level FlightAware Approximate
11:46PM 53.4709 -46.1248 79° East  Level FlightAware Approximate
11:47PM 53.4974 -45.8866 79° East  Level FlightAware Approximate
11:48PM 53.5234 -45.6481 80° East  Level FlightAware Approximate
11:49PM 53.5489 -45.4093 80° East  Level FlightAware Approximate
11:50PM 53.5739 -45.1703 80° East  Level FlightAware Approximate
11:51PM 53.5984 -44.9310 80° East  Level FlightAware Approximate
11:52PM 53.6225 -44.6913 80° East  Level FlightAware Approximate
11:53PM 53.6461 -44.4515 80° East  Level FlightAware Approximate
11:54PM 53.6692 -44.2113 81° East  Level FlightAware Approximate
11:55PM 53.6918 -43.9709 81° East  Level FlightAware Approximate
11:56PM 53.7140 -43.7303 81° East  Level FlightAware Approximate
11:57PM 53.7357 -43.4893 81° East  Level FlightAware Approximate
11:58PM 53.7568 -43.2482 81° East  Level FlightAware Approximate
11:59PM 53.7775 -43.0068 82° East  Level FlightAware Approximate
12:00AM 53.7977 -42.7651 82° East  Level FlightAware Approximate
12:01AM 53.8175 -42.5229 82° East  Level FlightAware Approximate
12:02AM 53.8374 -42.2809 82° East  Level FlightAware Approximate
12:03AM 53.8568 -42.0387 82° East  Level FlightAware Approximate
12:04AM 53.8757 -41.7963 82° East  Level FlightAware Approximate
12:05AM 53.8941 -41.5537 83° East  Level FlightAware Approximate
12:06AM 53.9120 -41.3109 83° East  Level FlightAware Approximate
12:07AM 53.9294 -41.0679 83° East  Level FlightAware Approximate
12:08AM 53.9463 -40.8247 83° East  Level FlightAware Approximate
12:09AM 53.9628 -40.5812 83° East  Level FlightAware Approximate
12:10AM 53.9787 -40.3376 84° East  Level FlightAware Approximate
12:11AM 53.9942 -40.0938 84° East  Level FlightAware Approximate
12:12AM 54.0211 -39.8534 76° East  Level FlightAware Approximate
12:13AM 54.0550 -39.6147 76° East  Level FlightAware Approximate
12:14AM 54.0885 -39.3757 76° East  Level FlightAware Approximate
12:15AM 54.1214 -39.1363 77° East  Level FlightAware Approximate
12:16AM 54.1539 -38.8966 77° East  Level FlightAware Approximate
12:17AM 54.1859 -38.6564 77° East  Level FlightAware Approximate
12:18AM 54.2175 -38.4159 77° East  Level FlightAware Approximate
12:19AM 54.2485 -38.1750 77° East  Level FlightAware Approximate
12:20AM 54.2791 -37.9338 78° East  Level FlightAware Approximate
12:21AM 54.3092 -37.6922 78° East  Level FlightAware Approximate
12:22AM 54.3388 -37.4502 78° East  Level FlightAware Approximate
12:23AM 54.3679 -37.2080 78° East  Level FlightAware Approximate
12:24AM 54.3966 -36.9653 78° East  Level FlightAware Approximate
12:25AM 54.4247 -36.7224 79° East  Level FlightAware Approximate
12:26AM 54.4524 -36.4791 79° East  Level FlightAware Approximate
12:27AM 54.4796 -36.2354 79° East  Level FlightAware Approximate
12:28AM 54.5062 -35.9915 79° East  Level FlightAware Approximate
12:29AM 54.5324 -35.7472 79° East  Level FlightAware Approximate
12:30AM 54.5581 -35.5027 80° East  Level FlightAware Approximate
12:31AM 54.5834 -35.2578 80° East  Level FlightAware Approximate
12:32AM 54.6081 -35.0126 80° East  Level FlightAware Approximate
12:33AM 54.6323 -34.7671 80° East  Level FlightAware Approximate
12:34AM 54.6560 -34.5214 80° East  Level FlightAware Approximate
12:35AM 54.6792 -34.2753 81° East  Level FlightAware Approximate
12:36AM 54.7019 -34.0290 81° East  Level FlightAware Approximate
12:37AM 54.7242 -33.7824 81° East  Level FlightAware Approximate
12:38AM 54.7459 -33.5355 81° East  Level FlightAware Approximate
12:39AM 54.7671 -33.2884 81° East  Level FlightAware Approximate
12:40AM 54.7878 -33.0410 82° East  Level FlightAware Approximate
12:41AM 54.8080 -32.7934 82° East  Level FlightAware Approximate
12:42AM 54.8277 -32.5455 82° East  Level FlightAware Approximate
12:43AM 54.8469 -32.2974 82° East  Level FlightAware Approximate
12:44AM 54.8656 -32.0490 82° East  Level FlightAware Approximate
12:45AM 54.8838 -31.8004 83° East  Level FlightAware Approximate
12:46AM 54.9015 -31.5516 83° East  Level FlightAware Approximate
12:47AM 54.9187 -31.3026 83° East  Level FlightAware Approximate
12:48AM 54.9353 -31.0534 83° East  Level FlightAware Approximate
12:49AM 54.9515 -30.8039 83° East  Level FlightAware Approximate
12:50AM 54.9671 -30.5543 84° East  Level FlightAware Approximate
12:51AM 54.9823 -30.3045 84° East  Level FlightAware Approximate
12:52AM 54.9969 -30.0545 84° East  Level FlightAware Approximate
12:53AM 55.0079 -29.8039 86° East  Level FlightAware Approximate
12:54AM 55.0174 -29.5530 86° East  Level FlightAware Approximate
12:55AM 55.0265 -29.3020 86° East  Level FlightAware Approximate
12:56AM 55.0351 -29.0509 86° East  Level FlightAware Approximate
12:57AM 55.0431 -28.7996 87° East  Level FlightAware Approximate
12:58AM 55.0507 -28.5483 87° East  Level FlightAware Approximate
12:59AM 55.0577 -28.2969 87° East  Level FlightAware Approximate
01:00AM 55.0642 -28.0454 87° East  Level FlightAware Approximate
01:01AM 55.0701 -27.7938 88° East  Level FlightAware Approximate
01:02AM 55.0756 -27.5422 88° East  Level FlightAware Approximate
01:03AM 55.0805 -27.2905 88° East  Level FlightAware Approximate
01:04AM 55.0849 -27.0387 88° East  Level FlightAware Approximate
01:05AM 55.0886 -26.7869 88° East  Level FlightAware Approximate
01:06AM 55.0919 -26.5350 89° East  Level FlightAware Approximate
01:07AM 55.0946 -26.2831 89° East  Level FlightAware Approximate
01:08AM 55.0968 -26.0312 89° East  Level FlightAware Approximate
01:09AM 55.0985 -25.7792 89° East  Level FlightAware Approximate
01:10AM 55.0997 -25.5273 89° East  Level FlightAware Approximate
01:11AM 55.1003 -25.2753 90° East  Level FlightAware Approximate
01:12AM 55.1004 -25.0233 90° East  Level FlightAware Approximate
01:13AM 55.1001 -24.7713 90° East  Level FlightAware Approximate
01:14AM 55.0994 -24.5193 90° East  Level FlightAware Approximate
01:15AM 55.0983 -24.2673 90° East  Level FlightAware Approximate
01:16AM 55.0966 -24.0154 91° East  Level FlightAware Approximate
01:17AM 55.0945 -23.7634 91° East  Level FlightAware Approximate
01:18AM 55.0918 -23.5115 91° East  Level FlightAware Approximate
01:19AM 55.0886 -23.2596 91° East  Level FlightAware Approximate
01:20AM 55.0848 -23.0078 91° East  Level FlightAware Approximate
01:21AM 55.0806 -22.7560 92° East  Level FlightAware Approximate
01:22AM 55.0758 -22.5043 92° East  Level FlightAware Approximate
01:23AM 55.0705 -22.2527 92° East  Level FlightAware Approximate
01:24AM 55.0647 -22.0011 92° East  Level FlightAware Approximate
01:25AM 55.0584 -21.7496 92° East  Level FlightAware Approximate
01:26AM 55.0516 -21.4981 93° East  Level FlightAware Approximate
01:27AM 55.0442 -21.2468 93° East  Level FlightAware Approximate
01:28AM 55.0363 -20.9956 93° East  Level FlightAware Approximate
01:29AM 55.0279 -20.7444 93° East  Level FlightAware Approximate
01:30AM 55.0190 -20.4934 93° East  Level FlightAware Approximate
01:31AM 55.0096 -20.2425 94° East  Level FlightAware Approximate
01:32AM 54.9990 -19.9919 102° East  Level FlightAware Approximate
01:33AM 54.9680 -19.7465 102° East  Level FlightAware Approximate
01:34AM 54.9365 -19.5015 103° East  Level FlightAware Approximate
01:35AM 54.9044 -19.2569 103° East  Level FlightAware Approximate
01:36AM 54.8720 -19.0126 103° East  Level FlightAware Approximate
01:37AM 54.8390 -18.7688 103° East  Level FlightAware Approximate
01:38AM 54.8055 -18.5254 103° East  Level FlightAware Approximate
01:39AM 54.7716 -18.2824 104° East  Level FlightAware Approximate
01:40AM 54.7371 -18.0398 104° East  Level FlightAware Approximate
01:41AM 54.7022 -17.7976 104° East  Level FlightAware Approximate
01:42AM 54.6668 -17.5558 104° East  Level FlightAware Approximate
01:43AM 54.6309 -17.3145 104° East  Level FlightAware Approximate
01:44AM 54.5946 -17.0736 105° East  Level FlightAware Approximate
01:45AM 54.5587 -16.8326 104° East  Level FlightAware Approximate
01:46AM 54.5229 -16.5919 104° East  Level FlightAware Approximate
01:47AM 54.4866 -16.3516 104° East  Level FlightAware Approximate
01:48AM 54.4498 -16.1117 105° East  Level FlightAware Approximate
01:49AM 54.4125 -15.8723 105° East  Level FlightAware Approximate
01:50AM 54.3747 -15.6333 105° East  Level FlightAware Approximate
01:51AM 54.3365 -15.3947 105° East  Level FlightAware Approximate
01:51AM 53.8930 -14.3020 105° East 528 608 39,000  Level FlightAware
01:52AM 54.2978 -15.1566 105° East  Level FlightAware Approximate
01:52AM 53.8580 -14.0880 105° East 527 606 39,000  Level FlightAware
01:53AM 53.8310 -13.9230 105° East 528 608 39,000  Level FlightAware
01:54AM 53.8100 -13.7850 104° East 528 608 39,000  Level FlightAware
01:54AM 53.7770 -13.5910 106° East 530 610 39,000  Level FlightAware
01:55AM 53.7540 -13.4430 105° East 522 601 39,000  Level FlightAware
01:56AM 53.7200 -13.2510 107° East 525 604 39,000  Level FlightAware
01:56AM 53.6930 -13.0890 106° East 524 603 39,000  Level FlightAware
01:57AM 53.6680 -12.9450 106° East 523 602 39,000  Level FlightAware
01:58AM 53.6360 -12.7590 106° East 525 604 39,000  Level FlightAware
01:58AM 53.6090 -12.6030 106° East 526 605 39,000  Level FlightAware
01:59AM 53.5780 -12.4260 106° East 526 605 39,000  Level FlightAware
02:00AM 53.5500 -12.2680 107° East 528 608 39,000  Level FlightAware
02:01AM 53.5220 -12.1120 107° East 530 610 39,000  Level FlightAware
02:01AM 53.4900 -11.9350 107° East 531 611 39,000  Level FlightAware
02:02AM 53.4610 -11.7750 107° East 531 611 39,000  Level FlightAware
02:03AM 53.4280 -11.5950 107° East 531 611 39,000  Level FlightAware
02:03AM 53.3990 -11.4400 107° East 529 609 39,000  Level FlightAware
02:04AM 53.3710 -11.2870 107° East 530 610 39,000  Level FlightAware
02:05AM 53.3370 -11.1070 107° East 528 608 39,000  Level FlightAware
02:05AM 53.3080 -10.9550 108° East 527 606 39,000  Level FlightAware
02:06AM 53.2670 -10.7410 108° East 523 602 39,000  Level FlightAware
02:07AM 53.2330 -10.5680 108° East 523 602 39,000  Level FlightAware
02:10AM 53.1869 -9.9982 97° East  Level Estimated
02:11AM 53.1666 -9.7578 98° East  Level Estimated
02:11AM 53.0670 -9.7360 98° East 530 610 39,000  Level FlightAware
02:13AM 53.0333 -9.3284 98° East  Level Estimated
02:14AM 53.0128 -9.0889 98° East  Level Estimated
02:14AM 52.9310 -9.0790 98° East 531 611 39,000  Level FlightAware
02:14AM 52.9090 -8.9724 98° East 494 568 37,500 -1,980 Descending FlightAware UK
02:14AM 52.8898 -8.8810 109° East 496 571 37,500  Level FlightAware UK
02:15AM 52.8751 -8.8121 109° East 494 568 37,500  Level FlightAware UK
02:15AM 52.8604 -8.7437 110° East 492 566 37,500 4,260 Level FlightAware UK
02:15AM 52.8610 -8.7460 110° East 527 606 39,000  Climbing FlightAware
02:15AM 52.8459 -8.6753 110° East 490 564 37,500 -2,760 Descending FlightAware UK
02:16AM 52.8314 -8.6070 109° East 492 566 37,500 3,600 Level FlightAware UK
02:16AM 52.8300 -8.6030 109° East 530 610 39,000  Climbing FlightAware
02:16AM 52.8116 -8.5158 109° East 496 571 37,500 -2,580 Descending FlightAware UK
02:16AM 52.7967 -8.4474 110° East 490 564 37,500 3,180 Level FlightAware UK
02:16AM 52.7930 -8.4300 110° East 528 608 39,000  Climbing FlightAware
02:17AM 52.7716 -8.3330 110° East 490 564 37,500 -2,400 Descending FlightAware UK
02:17AM 52.7567 -8.2646 110° East 492 566 37,500 4,500 Level FlightAware UK
02:17AM 52.7590 -8.2750 110° East 532 612 39,000  Climbing FlightAware
02:17AM 52.7417 -8.1961 110° East 496 571 37,500 -2,700 Descending FlightAware UK
02:18AM 52.7269 -8.1274 110° East 496 571 37,500 3,060 Level FlightAware UK
02:18AM 52.7220 -8.1060 110° East 533 613 39,000  Climbing FlightAware
02:18AM 52.7014 -8.0133 110° East 498 573 37,500 -2,460 Descending FlightAware UK
02:19AM 52.6862 -7.9447 110° East 500 575 37,500 4,260 Level FlightAware UK
02:19AM 52.6890 -7.9550 110° East 530 610 39,000  Climbing FlightAware
02:19AM 52.6709 -7.8762 110° East 498 573 37,500 -2,760 Descending FlightAware UK
02:19AM 52.6556 -7.8077 110° East 496 571 37,500 3,000 Level FlightAware UK
02:19AM 52.6500 -7.7830 110° East 529 609 39,000  Climbing FlightAware
02:20AM 52.6301 -7.6938 110° East 494 568 37,500  Descending FlightAware UK
02:20AM 52.6170 -7.6370 110° East 529 609 39,000  Climbing FlightAware
02:20AM 52.5945 -7.5347 110° East 500 575 37,500 -2,400 Descending FlightAware UK
02:21AM 52.5790 -7.4669 111° Southeast 500 575 37,500 4,500 Level FlightAware UK
02:21AM 52.5830 -7.4870 111° Southeast 525 604 39,000  Climbing FlightAware
02:21AM 52.5635 -7.3995 111° Southeast 492 566 37,500 -2,700 Descending FlightAware UK
02:21AM 52.5482 -7.3324 111° Southeast 494 568 37,500 3,060 Level FlightAware UK
02:21AM 52.5440 -7.3140 111° Southeast 524 603 39,000  Climbing FlightAware
02:22AM 52.5225 -7.2207 111° Southeast 492 566 37,500  Descending FlightAware UK
02:22AM 52.5090 -7.1620 111° Southeast 525 604 39,000  Climbing FlightAware
02:22AM 52.4916 -7.0859 111° Southeast 490 564 37,500 -2,760 Descending FlightAware UK
02:23AM 52.4760 -7.0188 111° Southeast 486 559 37,500 3,600 Level FlightAware UK
02:23AM 52.4750 -7.0140 111° Southeast 527 606 39,000  Climbing FlightAware
02:23AM 52.4551 -6.9291 111° Southeast 492 566 37,500 -2,580 Descending FlightAware UK
02:23AM 52.4393 -6.8612 111° Southeast 496 571 37,500 3,180 Level FlightAware UK
02:23AM 52.4350 -6.8450 111° Southeast 538 619 39,000  Climbing FlightAware
02:24AM 52.4069 -6.7236 111° Southeast 500 575 37,500  Descending FlightAware UK
02:24AM 52.4020 -6.7040 111° Southeast 534 615 39,000  Climbing FlightAware
02:24AM 52.3803 -6.6109 111° Southeast 500 575 37,500 -2,280 Descending FlightAware UK
02:25AM 52.3591 -6.5210 111° Southeast 500 575 37,500 3,060 Level FlightAware UK
02:25AM 52.3560 -6.5110 111° Southeast 532 612 39,000  Climbing FlightAware
02:25AM 52.3377 -6.4313 111° Southeast 498 573 37,500 -2,460 Descending FlightAware UK
02:26AM 52.3216 -6.3643 112° Southeast 492 566 37,500 4,260 Level FlightAware UK
02:26AM 52.3200 -6.3610 112° Southeast 530 610 39,000  Climbing FlightAware
02:26AM 52.3054 -6.2973 112° Southeast 492 566 37,500  Descending FlightAware UK
02:26AM 52.2810 -6.1950 112° Southeast 536 617 39,000  Climbing FlightAware
02:27AM 52.2623 -6.1178 112° Southeast 502 578 37,500 -2,520 Descending FlightAware UK
02:27AM 52.2460 -6.0501 111° Southeast 500 575 37,500 4,080 Level FlightAware UK
02:27AM 52.2450 -6.0480 111° Southeast 536 617 39,000  Climbing FlightAware
02:27AM 52.2238 -5.9592 111° Southeast 500 575 37,500  Descending FlightAware UK
02:28AM 52.2070 -5.8920 111° Southeast 534 615 39,000  Climbing FlightAware
02:28AM 52.1906 -5.8246 111° Southeast 500 575 37,500 -2,700 Descending FlightAware UK
02:28AM 52.1741 -5.7577 112° Southeast 504 580 37,500 3,720 Level FlightAware UK
02:28AM 52.1700 -5.7420 112° Southeast 530 610 39,000  Climbing FlightAware
02:29AM 52.1521 -5.6687 112° Southeast 500 575 37,500 -2,520 Descending FlightAware UK
02:29AM 52.1355 -5.6022 112° Southeast 500 575 37,500 3,300 Level FlightAware UK
02:29AM 52.1300 -5.5790 112° Southeast 528 608 39,000  Climbing FlightAware
02:29AM 52.1137 -5.5140 112° Southeast 500 575 37,500 -2,760 Descending FlightAware UK
02:30AM 52.0974 -5.4483 112° Southeast 494 568 37,500 3,000 Level FlightAware UK
02:30AM 52.0900 -5.4190 112° Southeast 526 605 39,000  Climbing FlightAware
02:30AM 52.0700 -5.3391 112° Southeast 500 575 37,500 -2,520 Descending FlightAware UK
02:30AM 52.0536 -5.2734 112° Southeast 496 571 37,500 4,080 Level FlightAware UK
02:30AM 52.0520 -5.2680 112° Southeast 527 606 39,000  Climbing FlightAware
02:31AM 52.0314 -5.1852 112° Southeast 494 568 37,500 -2,400 Descending FlightAware UK
02:31AM 52.0150 -5.1193 112° Southeast 500 575 37,500 4,500 Level FlightAware UK
02:31AM 52.0160 -5.1180 112° Southeast 528 608 39,000  Climbing FlightAware
02:31AM 52.0024 -5.0508 112° Southeast 496 571 37,500 -2,700 Descending FlightAware UK
02:32AM 51.9920 -4.9822 104° East 494 568 37,500 3,060 Level FlightAware UK
02:32AM 51.9880 -4.9490 104° East 526 605 39,000  Climbing FlightAware
02:32AM 51.9799 -4.8658 104° East 498 573 37,500 -2,460 Descending FlightAware UK
02:33AM 51.9744 -4.7954 97° East 492 566 37,500 4,260 Level FlightAware UK
02:33AM 51.9750 -4.7960 97° East 525 604 39,000  Climbing FlightAware
02:33AM 51.9686 -4.7253 97° East 494 568 37,500 -2,280 Descending FlightAware UK
02:33AM 51.9604 -4.6308 98° East 498 573 37,500 3,600 Level FlightAware UK
02:33AM 51.9610 -4.6440 98° East 530 610 39,000  Climbing FlightAware
02:34AM 51.9540 -4.5602 98° East 500 575 37,500 -2,520 Descending FlightAware UK
02:34AM 51.9479 -4.4896 98° East 502 578 37,500 3,300 Level FlightAware UK
02:34AM 51.9450 -4.4600 98° East 527 606 39,000  Climbing FlightAware
02:34AM 51.9396 -4.3959 98° East 500 575 37,500 -2,760 Descending FlightAware UK
02:35AM 51.9333 -4.3258 98° East 504 580 37,500 3,600 Level FlightAware UK
02:35AM 51.9320 -4.3100 98° East 525 604 39,000  Climbing FlightAware
02:35AM 51.9208 -4.1862 98° East 496 571 37,500  Descending FlightAware UK
02:35AM 51.9180 -4.1580 98° East 524 603 39,000  Climbing FlightAware
02:36AM 51.9103 -4.0702 98° East 502 578 37,500 -2,460 Descending FlightAware UK
02:36AM 51.9039 -3.9999 98° East 496 571 37,500 3,420 Level FlightAware UK
02:36AM 51.9020 -3.9780 98° East 522 601 39,000  Climbing FlightAware
02:36AM 51.8956 -3.9073 98° East 492 566 37,500 -2,700 Descending FlightAware UK
02:37AM 51.8891 -3.8388 99° East 490 564 37,500 3,720 Level FlightAware UK
02:37AM 51.8880 -3.8250 99° East 524 603 39,000  Climbing FlightAware
02:37AM 51.8804 -3.7453 99° East 498 573 37,500  Descending FlightAware UK
02:37AM 51.8710 -3.6490 99° East 527 606 39,000  Climbing FlightAware
02:38AM 51.8650 -3.5821 99° East 500 575 37,500 -2,340 Descending FlightAware UK
02:38AM 51.8561 -3.4886 99° East 498 573 37,500 3,600 Level FlightAware UK
02:38AM 51.8560 -3.4880 99° East 527 606 39,000  Climbing FlightAware
02:38AM 51.8495 -3.4186 99° East 498 573 37,500 -2,220 Descending FlightAware UK
02:39AM 51.8402 -3.3246 99° East 500 575 37,500 3,180 Level FlightAware UK
02:39AM 51.8390 -3.3130 99° East 526 605 39,000  Climbing FlightAware
02:39AM 51.8288 -3.2092 99° East 496 571 37,500  Descending FlightAware UK
02:40AM 51.8240 -3.1650 99° East 526 605 39,000  Climbing FlightAware
02:40AM 51.8172 -3.0924 99° East 494 568 37,500  Descending FlightAware UK
02:40AM 51.8068 -2.9883 99° East 527 606 39,000  Climbing FlightAware ADS-B
02:41AM 51.8009 -2.9286 99° East 496 571 37,500  Descending FlightAware UK
02:41AM 51.7948 -2.8702 99° East 524 603 39,000  Climbing FlightAware ADS-B
02:41AM 51.7866 -2.7898 99° East 498 573 37,500  Descending FlightAware UK
02:41AM 51.7829 -2.7529 99° East 526 605 39,000 2,100 Climbing FlightAware ADS-B
02:42AM 51.7702 -2.6305 99° East 527 606 39,000  Level FlightAware ADS-B
02:42AM 51.7576 -2.5088 99° East 529 609 39,000 -1,680 Level FlightAware ADS-B
02:43AM 51.7480 -2.4178 99° East 500 575 37,500  Descending FlightAware UK
02:43AM 51.7452 -2.3911 99° East 527 606 39,000  Climbing FlightAware ADS-B
02:43AM 51.7382 -2.3249 99° East 498 573 37,500  Descending FlightAware UK
02:43AM 51.7309 -2.2571 99° East 527 606 39,000  Climbing FlightAware ADS-B
02:44AM 51.7232 -2.1851 99° East 502 578 37,500  Descending FlightAware UK
02:44AM 51.7167 -2.1259 99° East 528 608 39,000 3,060 Climbing FlightAware ADS-B
02:44AM 51.7111 -2.0744 100° East 528 608 39,000 -2,760 Level FlightAware ADS-B
02:45AM 51.7030 -1.9989 100° East 502 578 37,500  Descending FlightAware UK
02:45AM 51.6980 -1.9539 100° East 527 606 39,000  Climbing FlightAware ADS-B
02:45AM 51.6877 -1.8600 100° East 502 578 37,500  Descending FlightAware UK
02:45AM 51.6845 -1.8316 100° East 526 605 39,000  Climbing FlightAware ADS-B
02:46AM 51.6748 -1.7439 100° East 500 575 37,500  Descending FlightAware UK
02:46AM 51.6691 -1.6940 100° East 525 604 39,000  Climbing FlightAware ADS-B
02:46AM 51.6618 -1.6289 100° East 500 575 37,500  Descending FlightAware UK
02:46AM 51.6558 -1.5755 100° East 526 605 39,000  Climbing FlightAware ADS-B
02:47AM 51.6462 -1.4906 100° East 504 580 37,500  Descending FlightAware UK
02:47AM 51.6403 -1.4397 100° East 526 605 39,000  Climbing FlightAware ADS-B
02:47AM 51.6304 -1.3524 100° East 504 580 37,500  Descending FlightAware UK
02:47AM 51.6269 -1.3231 100° East 524 603 39,000  Climbing FlightAware ADS-B
02:48AM 51.6195 -1.2600 100° East 500 575 37,500  Descending FlightAware UK
02:48AM 51.6128 -1.2020 100° East 523 602 39,000 1,860 Climbing FlightAware ADS-B
02:49AM 51.5984 -1.0797 101° East 524 603 39,000 -1,800 Level FlightAware ADS-B
02:49AM 51.5899 -1.0078 101° East 500 575 37,500  Descending FlightAware UK
02:49AM 51.5847 -0.9631 101° East 525 604 39,000 2,040 Climbing FlightAware ADS-B
02:50AM 51.5706 -0.8452 101° East 525 604 39,000 -1,680 Level FlightAware ADS-B
02:50AM 51.5598 -0.7554 101° East 502 578 37,500  Descending FlightAware UK
02:50AM 51.5564 -0.7275 101° East 526 605 39,000  Climbing FlightAware ADS-B
02:50AM 51.5485 -0.6637 101° East 498 573 37,500  Descending FlightAware UK
02:51AM 51.5417 -0.6063 101° East 527 606 39,000 1,860 Climbing FlightAware ADS-B
02:51AM 51.5270 -0.4871 101° East 527 606 39,000 -1,800 Level FlightAware ADS-B
02:51AM 51.5175 -0.4099 101° East 502 578 37,500  Descending FlightAware UK
02:52AM 51.5116 -0.3625 101° East 528 608 39,000  Climbing FlightAware ADS-B
02:52AM 51.5030 -0.2940 101° East 500 575 37,500  Descending FlightAware UK
02:52AM 51.4970 -0.2456 101° East 526 605 39,000 2,040 Climbing FlightAware ADS-B
02:53AM 51.4822 -0.1278 101° East 526 605 39,000 -1,740 Level FlightAware ADS-B
02:53AM 51.4713 -0.0423 101° East 498 573 37,500  Descending FlightAware UK
02:53AM 51.4676 -0.0131 101° East 527 606 39,000 2,280 Climbing FlightAware ADS-B
02:54AM 51.4526 0.1036 102° East 529 609 39,000 -1,740 Level FlightAware ADS-B
02:54AM 51.4419 0.1875 102° East 500 575 37,500  Descending FlightAware UK
02:54AM 51.4376 0.2201 102° East 528 608 39,000 2,160 Climbing FlightAware ADS-B
02:55AM 51.4218 0.3410 102° East 529 609 39,000  Level FlightAware ADS-B
02:55AM 51.4064 0.4584 102° East 530 610 39,000 -1,800 Level FlightAware ADS-B
02:56AM 51.3965 0.5335 102° East 498 573 37,500  Descending FlightAware UK
02:56AM 51.3907 0.5769 102° East 535 616 39,000  Climbing FlightAware ADS-B
02:56AM 51.3811 0.6493 102° East 502 578 37,500  Descending FlightAware UK
02:56AM 51.3749 0.6958 102° East 535 616 39,000  Climbing FlightAware ADS-B
02:57AM 51.3654 0.7661 102° East 500 575 37,500  Descending FlightAware UK
02:57AM 51.3582 0.8192 102° East 535 616 39,000  Climbing FlightAware ADS-B
02:57AM 51.3465 0.9050 102° East 500 575 37,500  Descending FlightAware UK
02:57AM 51.3411 0.9447 102° East 534 615 39,000  Climbing FlightAware ADS-B
02:58AM 51.3277 1.0428 102° East 504 580 37,500  Descending FlightAware UK
02:58AM 51.3240 1.0696 102° East 531 611 39,000  Climbing FlightAware ADS-B
02:58AM 51.3146 1.1342 102° East 498 573 37,500  Descending FlightAware UK
02:58AM 51.3048 1.1939 102° East 530 610 39,000  Climbing FlightAware ADS-B
02:59AM 51.2925 1.2708 102° East 500 575 37,500  Descending FlightAware UK
02:59AM 51.2848 1.3190 102° East 531 611 39,000  Climbing FlightAware ADS-B
02:59AM 51.2742 1.3852 102° East 498 573 37,500  Descending FlightAware UK
03:00AM 51.2627 1.4595 102° East 533 613 39,000  Climbing FlightAware ADS-B
03:00AM 51.2528 1.5221 102° East 500 575 37,500 -2,700 Descending FlightAware UK
03:00AM 51.2419 1.5906 104° East 498 573 37,500  Level FlightAware UK
03:00AM 51.2310 1.6599 104° East 498 573 37,500 4,080 Level FlightAware UK
03:01AM 51.2310 1.6620 104° East 533 613 39,000  Climbing FlightAware
03:01AM 51.2167 1.7506 104° East 500 575 37,500  Descending FlightAware UK
03:01AM 51.2050 1.8210 104° East 536 617 39,000  Climbing FlightAware
03:02AM 51.1796 1.9810 104° East 500 575 37,500  Descending FlightAware UK
03:02AM 51.1820 1.9690 104° East 536 617 39,000  Climbing FlightAware
03:02AM 51.1684 2.0489 104° East 500 575 37,500 -2,520 Descending FlightAware UK
03:02AM 51.1573 2.1175 104° East 502 578 37,500 2,760 Level FlightAware UK
03:03AM 51.1510 2.1540 104° East 535 616 39,000  Climbing FlightAware
03:03AM 51.1385 2.2325 104° East 502 578 37,500 -2,580 Descending FlightAware UK
03:03AM 51.1274 2.3016 104° East 502 578 37,500 2,280 Level FlightAware UK
03:04AM 51.1180 2.3600 104° East 532 612 39,000  Climbing FlightAware
03:04AM 51.1050 2.4378 104° East 498 573 37,500 -2,700 Descending FlightAware UK
03:04AM 51.0936 2.5055 105° East 500 575 37,500 3,060 Level FlightAware UK
03:04AM 51.0880 2.5360 105° East 532 612 39,000  Climbing FlightAware
03:05AM 51.0746 2.6183 105° East 502 578 37,500 -2,460 Descending FlightAware UK
03:05AM 51.0631 2.6859 105° East 502 578 37,500 2,880 Level FlightAware UK
03:05AM 51.0560 2.7280 105° East 530 610 39,000  Climbing FlightAware
03:06AM 51.0404 2.8211 105° East 504 580 37,500  Descending FlightAware UK
03:06AM 51.0350 2.8510 105° East 528 608 39,000  Climbing FlightAware
03:06AM 51.0136 2.9777 105° East 500 575 37,500 -1,920 Descending FlightAware UK
03:07AM 51.0021 3.0446 105° East 502 578 37,500 3,600 Level FlightAware UK
03:07AM 50.9990 3.0590 105° East 525 604 39,000  Climbing FlightAware
03:07AM 50.9750 3.2006 105° East 496 571 37,500  Descending FlightAware UK
03:07AM 50.9790 3.1790 105° East 523 602 39,000  Climbing FlightAware
03:08AM 50.9634 3.2664 105° East 500 575 37,500 -2,520 Descending FlightAware UK
03:08AM 50.9516 3.3339 106° East 498 573 37,500 3,300 Level FlightAware UK
03:08AM 50.9500 3.3440 106° East 526 605 39,000  Climbing FlightAware
03:08AM 50.9322 3.4447 106° East 500 575 37,500 -2,340 Descending FlightAware UK
03:09AM 50.9203 3.5125 106° East 502 578 37,500 3,720 Level FlightAware UK
03:09AM 50.9190 3.5170 106° East 525 604 39,000  Climbing FlightAware
03:09AM 50.9043 3.6017 106° East 500 575 37,500  Descending FlightAware UK
03:09AM 50.8940 3.6600 106° East 522 601 39,000 -600 Climbing FlightAware
03:10AM 50.8735 3.7547 106° East 498 573 37,100 -960 Descending FlightAware UK
03:10AM 50.8570 3.8200 106° East 521 600 38,300 780 Climbing FlightAware
03:11AM 50.8230 3.9630 111° Southeast 516 594 38,000 -600 Descending FlightAware
03:12AM 50.7900 4.1040 110° East 518 596 37,500 -2,280 Descending FlightAware
03:12AM 50.7624 4.2225 110° East 500 575 35,500 -720 Descending FlightAware UK
03:12AM 50.7570 4.2660 110° East 522 601 37,000  Climbing FlightAware
03:13AM 50.7420 4.3575 110° East 496 571 35,500 -2,520 Descending FlightAware UK
03:13AM 50.7309 4.4248 105° East 498 573 35,500 4,080 Level FlightAware UK
03:13AM 50.7310 4.4180 105° East 522 601 37,000 1,800 Climbing FlightAware
03:14AM 50.7030 4.5790 105° East 522 601 37,000 -1,140 Level FlightAware
03:14AM 50.6758 4.7327 105° East 498 573 35,500 -180 Descending FlightAware UK
03:14AM 50.6760 4.7280 105° East 522 601 36,900 660 Climbing FlightAware
03:15AM 50.6510 4.8720 105° East 514 592 36,000 -1,320 Descending FlightAware
03:16AM 50.6220 5.0360 106° East 516 594 35,100 -1,080 Descending FlightAware
03:16AM 50.5960 5.1800 106° East 514 592 34,500 -960 Descending FlightAware
03:17AM 50.5670 5.3380 106° East 517 595 33,800 -1,080 Descending FlightAware
03:18AM 50.5410 5.4790 106° East 517 595 33,100 -1,080 Descending FlightAware
03:19AM 50.5100 5.6450 106° East 524 603 32,400 -1,020 Descending FlightAware
03:19AM 50.4780 5.8160 106° East 528 608 31,600 -1,320 Descending FlightAware
03:20AM 50.4520 5.9550 106° East 526 605 30,600 -2,340 Descending FlightAware
03:21AM 50.4210 6.1180 107° East 521 600 28,300 -2,700 Descending FlightAware
03:21AM 50.4000 6.2330 106° East 511 588 27,000 -2,040 Descending FlightAware
03:22AM 50.3620 6.4300 107° East 499 574 25,100 -1,980 Descending FlightAware
03:23AM 50.3290 6.5960 107° East 496 571 23,600 -1,980 Descending FlightAware
03:24AM 50.3000 6.7450 107° East 492 566 22,300 -1,800 Descending FlightAware
03:24AM 50.2740 6.8790 107° East 478 550 21,200 -1,860 Descending FlightAware
03:25AM 50.2380 7.0600 107° East 458 527 19,100 -2,100 Descending FlightAware
03:26AM 50.2050 7.2250 107° East 438 504 17,200 -2,640 Descending FlightAware
03:27AM 50.1790 7.3550 107° East 432 497 15,200 -2,400 Descending FlightAware
03:28AM 50.1490 7.5010 108° East 422 486 13,600 -1,320 Descending FlightAware
03:29AM 50.1210 7.6370 108° East 417 480 13,000 -480 Descending FlightAware
03:29AM 50.0990 7.7430 108° East 414 476 13,000  Level FlightAware
03:30AM 50.0710 7.8850 107° East 420 483 13,000  Level FlightAware
03:31AM 50.0510 7.9890 107° East 418 481 13,000  Level FlightAware
03:31AM 50.0210 8.1340 108° East 419 482 13,000  Level FlightAware
03:32AM 50.0030 8.2240 107° East 423 487 13,000  Level FlightAware
03:33AM 49.9760 8.3570 107° East 428 493 13,000  Level FlightAware
03:33AM 49.9510 8.4810 107° East 425 489 13,000 -540 Level FlightAware
03:34AM 49.9450 8.6050 94° East 424 488 12,300 -1,320 Descending FlightAware
03:35AM 49.9720 8.6980 66° East 407 468 11,300 -1,320 Descending FlightAware
03:36AM 50.0060 8.8180 66° East 374 430 10,600 -840 Descending FlightAware
03:36AM 50.0330 8.9340 70° East 340 391 10,100 -660 Descending FlightAware
03:37AM 50.0490 9.0010 70° East 319 367 9,800 -600 Descending FlightAware
03:37AM 50.0610 9.0510 69° East 306 352 9,600 -600 Descending FlightAware
03:38AM 50.0760 9.1150 70° East 291 335 9,300 -540 Descending FlightAware
03:38AM 50.0890 9.1710 70° East 272 313 9,100 -360 Descending FlightAware
03:39AM 50.0960 9.2000 69° East 267 307 9,000 -780 Descending FlightAware
03:39AM 50.1150 9.2320 47° Northeast 257 296 8,600 -1,440 Descending FlightAware
03:39AM 50.1290 9.2390 18° North 245 282 8,300 -1,500 Descending FlightAware
03:40AM 50.1630 9.2190 339° North 237 273 7,500 -1,380 Descending FlightAware
03:40AM 50.1680 9.2050 299° West 233 268 7,300 -1,200 Descending FlightAware
03:40AM 50.1740 9.1730 286° West 232 267 6,900 -840 Descending FlightAware
03:41AM 50.1680 9.1320 257° West 212 244 6,700 -480 Descending FlightAware
03:41AM 50.1600 9.0980 250° West 206 237 6,500 -840 Descending FlightAware
03:41AM 50.1530 9.0650 252° West 205 236 6,000 -1,200 Descending FlightAware
03:42AM 50.1460 9.0370 249° West 211 243 5,600 -1,380 Descending FlightAware
03:42AM 50.1370 9.0000 249° West 217 250 5,000 -1,560 Descending FlightAware
03:43AM 50.1270 8.9560 250° West 223 257 4,200 -1,200 Descending FlightAware
03:43AM 50.1160 8.9100 250° West 227 261 3,800 -600 Descending FlightAware
03:44AM 50.1070 8.8720 250° West 222 255 3,700 -360 Descending FlightAware
03:44AM 50.0960 8.8280 249° West 211 243 3,500 -780 Descending FlightAware
03:44AM 50.0890 8.7950 252° West 214 246 3,000 -1,020 Descending FlightAware
03:45AM 50.0790 8.7520 250° West 191 220 2,600 -1,080 Descending FlightAware
03:45AM 50.0750 8.7330 252° West 188 216 2,200 -1,200 Descending FlightAware
03:46AM 50.0670 8.7020 248° West 173 199 1,800 -1,020 Descending FlightAware
03:46AM 50.0590 8.6670 250° West 151 174 1,300 -960 Descending FlightAware
03:46AM 50.0560 8.6530 252° West 139 160 1,100 -780 Descending FlightAware
03:47AM 50.0500 8.6300 248° West 133 153 800 -720 Descending FlightAware
03:47AM 50.0470 8.6150 253° West 131 151 600 -600 Descending FlightAware
03:50AM 50.0167 8.5667 111° Southeast  Level FlightAware Approximate
03:51AM 50.0264 8.5431 111° Southeast  Level Estimated
03:52AM 50.0264 8.5431 111° Southeast  Level Estimated
03:53AM 50.0264 8.5431 111° Southeast  Level Estimated
03:54AM 50.0264 8.5431 111° Southeast  Level Estimated